createdAt,value
2023-01-13T00:01:15.575Z,0.90
2023-01-13T00:03:43.266Z,0.90
2023-01-13T00:06:13.296Z,0.87
2023-01-13T00:08:40.090Z,1.00
2023-01-13T00:11:06.747Z,0.83
2023-01-13T00:13:35.453Z,0.90
2023-01-13T00:16:07.284Z,1.03
2023-01-13T00:18:34.856Z,0.77
2023-01-13T00:21:06.755Z,0.80
2023-01-13T00:23:34.806Z,0.77
2023-01-13T00:26:04.463Z,0.77
2023-01-13T00:28:31.130Z,0.80
2023-01-13T00:31:08.726Z,1.23
2023-01-13T00:33:35.941Z,0.80
2023-01-13T00:36:03.974Z,0.80
2023-01-13T00:38:34.328Z,0.77
2023-01-13T00:41:12.441Z,0.77
2023-01-13T00:43:39.182Z,0.90
2023-01-13T00:46:07.549Z,0.77
2023-01-13T00:48:34.429Z,0.83
2023-01-13T00:51:12.133Z,0.87
2023-01-13T00:53:43.158Z,1.00
2023-01-13T00:56:18.223Z,0.87
2023-01-13T00:58:47.076Z,1.20
2023-01-13T01:01:19.670Z,1.23
2023-01-13T01:03:51.593Z,1.30
2023-01-13T01:06:25.864Z,1.43
2023-01-13T01:08:57.867Z,1.20
2023-01-13T01:11:27.446Z,1.40
2023-01-13T01:13:56.622Z,1.17
2023-01-13T01:16:24.998Z,1.50
2023-01-13T01:18:52.840Z,1.83
2023-01-13T01:21:20.613Z,1.90
2023-01-13T01:23:47.271Z,1.87
2023-01-13T01:26:21.950Z,1.70
2023-01-13T01:28:48.974Z,1.60
2023-01-13T01:31:21.678Z,1.40
2023-01-13T01:33:49.421Z,1.50
2023-01-13T01:36:17.753Z,2.00
2023-01-13T01:38:44.695Z,1.67
2023-01-13T01:41:23.177Z,2.03
2023-01-13T01:44:00.441Z,1.60
2023-01-13T01:46:30.115Z,1.80
2023-01-13T01:49:07.497Z,2.20
2023-01-13T01:51:43.012Z,2.00
2023-01-13T01:54:11.605Z,1.93
2023-01-13T01:56:40.338Z,1.90
2023-01-13T01:59:07.108Z,1.83
2023-01-13T02:01:34.334Z,1.87
2023-01-13T02:04:11.991Z,2.00
2023-01-13T02:06:38.966Z,1.80
2023-01-13T02:09:05.545Z,2.10
2023-01-13T02:11:53.248Z,2.03
2023-01-13T02:14:22.673Z,2.13
2023-01-13T02:16:57.346Z,2.40
2023-01-13T02:19:47.474Z,3.10
2023-01-13T02:22:31.798Z,2.83
2023-01-13T02:25:13.256Z,2.70
2023-01-13T02:28:04.599Z,3.13
2023-01-13T02:31:22.200Z,2.97
2023-01-13T02:33:58.931Z,3.00
2023-01-13T02:36:28.472Z,2.60
2023-01-13T02:38:58.749Z,3.00
2023-01-13T02:41:57.668Z,2.50
2023-01-13T02:44:33.119Z,2.37
2023-01-13T02:47:22.802Z,2.60
2023-01-13T02:49:53.725Z,3.20
2023-01-13T02:52:30.249Z,3.10
2023-01-13T02:55:18.409Z,2.07
2023-01-13T02:57:45.277Z,2.53
2023-01-13T03:00:13.417Z,2.87
2023-01-13T03:02:40.264Z,2.20
2023-01-13T03:05:07.144Z,2.53
2023-01-13T03:07:55.867Z,2.20
2023-01-13T03:10:22.965Z,1.93
2023-01-13T03:13:04.567Z,2.20
2023-01-13T03:15:40.341Z,1.70
2023-01-13T03:18:14.794Z,1.73
2023-01-13T03:20:57.012Z,2.40
2023-01-13T03:23:51.160Z,2.73
2023-01-13T03:26:28.021Z,1.73
2023-01-13T03:29:28.375Z,1.60
2023-01-13T03:32:29.069Z,2.10
2023-01-13T03:34:56.330Z,1.83
2023-01-13T03:37:28.583Z,1.50
2023-01-13T03:40:00.624Z,1.63
2023-01-13T03:42:29.124Z,1.90
2023-01-13T03:45:13.171Z,2.10
2023-01-13T03:47:55.142Z,2.07
2023-01-13T03:50:36.195Z,2.70
2023-01-13T03:53:03.735Z,2.17
2023-01-13T03:55:34.558Z,2.23
2023-01-13T03:58:07.743Z,2.10
2023-01-13T04:00:38.903Z,2.73
2023-01-13T04:03:08.216Z,2.07
2023-01-13T04:05:41.508Z,1.87
2023-01-13T04:08:18.102Z,1.90
2023-01-13T04:10:55.931Z,2.17
2023-01-13T04:13:24.528Z,2.10
2023-01-13T04:15:52.986Z,2.07
2023-01-13T04:18:28.103Z,2.00
2023-01-13T04:20:57.526Z,1.70
2023-01-13T04:23:24.734Z,2.20
2023-01-13T04:25:51.841Z,1.80
2023-01-13T04:28:18.633Z,2.50
2023-01-13T04:30:46.126Z,2.77
2023-01-13T04:33:13.064Z,2.27
2023-01-13T04:35:39.819Z,2.20
2023-01-13T04:38:12.437Z,1.90
2023-01-13T04:40:39.671Z,1.80
2023-01-13T04:43:06.375Z,2.37
2023-01-13T04:45:33.100Z,2.30
2023-01-13T04:48:00.221Z,2.23
2023-01-13T04:50:26.739Z,2.43
2023-01-13T04:52:54.714Z,2.20
2023-01-13T04:55:22.884Z,1.97
2023-01-13T04:57:49.425Z,2.00
2023-01-13T05:00:18.254Z,1.90
2023-01-13T05:02:44.902Z,2.33
2023-01-13T05:05:11.795Z,2.50
2023-01-13T05:07:38.465Z,2.57
2023-01-13T05:10:05.780Z,2.20
2023-01-13T05:12:51.030Z,2.63
2023-01-13T05:15:36.798Z,2.13
2023-01-13T05:18:03.689Z,2.30
2023-01-13T05:20:30.565Z,2.37
2023-01-13T05:23:15.639Z,2.20
2023-01-13T05:25:44.561Z,2.63
2023-01-13T05:28:11.232Z,2.87
2023-01-13T05:30:42.534Z,2.20
2023-01-13T05:33:13.391Z,3.03
2023-01-13T05:35:41.371Z,3.17
2023-01-13T05:38:08.271Z,2.90
2023-01-13T05:40:54.130Z,2.60
2023-01-13T05:43:21.866Z,3.20
2023-01-13T05:46:01.883Z,3.03
2023-01-13T05:48:31.377Z,3.40
2023-01-13T05:50:58.159Z,3.13
2023-01-13T05:53:25.330Z,2.77
2023-01-13T05:55:52.162Z,2.90
2023-01-13T05:58:20.345Z,2.93
2023-01-13T06:00:47.401Z,2.63
2023-01-13T06:03:14.641Z,2.57
2023-01-13T06:05:45.511Z,2.37
2023-01-13T06:08:12.068Z,2.30
2023-01-13T06:10:38.700Z,2.17
2023-01-13T06:13:06.634Z,2.10
2023-01-13T06:15:33.248Z,2.33
2023-01-13T06:18:02.930Z,2.57
2023-01-13T06:20:29.794Z,2.20
2023-01-13T06:22:56.416Z,2.47
2023-01-13T06:25:26.518Z,2.70
2023-01-13T06:27:54.858Z,2.87
2023-01-13T06:30:21.557Z,2.70
2023-01-13T06:32:52.643Z,2.70
2023-01-13T06:35:24.062Z,2.70
2023-01-13T06:37:53.271Z,2.70
2023-01-13T06:40:19.846Z,3.37
2023-01-13T06:43:05.214Z,2.40
2023-01-13T06:45:31.981Z,2.73
2023-01-13T06:47:59.967Z,2.37
2023-01-13T06:50:27.388Z,2.93
2023-01-13T06:52:53.998Z,2.77
2023-01-13T06:55:20.675Z,3.20
2023-01-13T06:57:55.305Z,2.60
2023-01-13T07:00:22.611Z,2.40
2023-01-13T07:02:49.321Z,2.10
2023-01-13T07:05:16.907Z,2.37
2023-01-13T07:07:43.719Z,2.97
2023-01-13T07:10:13.187Z,2.70
2023-01-13T07:13:00.074Z,2.90
2023-01-13T07:15:27.125Z,2.40
2023-01-13T07:17:53.772Z,3.07
2023-01-13T07:20:20.323Z,2.47
2023-01-13T07:22:46.939Z,2.20
2023-01-13T07:25:13.636Z,1.87
2023-01-13T07:27:40.239Z,2.90
2023-01-13T07:30:10.315Z,2.70
2023-01-13T07:32:36.801Z,2.60
2023-01-13T07:35:05.480Z,2.70
2023-01-13T07:37:34.486Z,3.03
2023-01-13T07:40:01.769Z,2.33
2023-01-13T07:42:46.925Z,2.87
2023-01-13T07:45:13.540Z,2.70
2023-01-13T07:47:40.736Z,2.60
2023-01-13T07:50:08.466Z,2.60
2023-01-13T07:52:35.179Z,2.30
2023-01-13T07:55:01.695Z,2.43
2023-01-13T07:57:28.966Z,2.07
2023-01-13T07:59:55.772Z,3.00
2023-01-13T08:02:22.497Z,2.17
2023-01-13T08:04:49.254Z,2.73
2023-01-13T08:07:17.023Z,2.60
2023-01-13T08:09:43.737Z,2.20
2023-01-13T08:12:28.807Z,3.20
2023-01-13T08:14:55.869Z,2.47
2023-01-13T08:17:22.548Z,2.83
2023-01-13T08:19:49.276Z,2.40
2023-01-13T08:22:15.879Z,2.23
2023-01-13T08:24:42.386Z,2.37
2023-01-13T08:27:09.065Z,3.07
2023-01-13T08:29:35.572Z,6.77
2023-01-13T08:32:02.251Z,2.60
2023-01-13T08:34:28.785Z,3.10
2023-01-13T08:36:55.608Z,2.07
2023-01-13T08:39:23.716Z,1.93
2023-01-13T08:41:56.275Z,2.60
2023-01-13T08:44:28.177Z,5.20
2023-01-13T08:46:55.273Z,2.23
2023-01-13T08:49:22.389Z,3.47
2023-01-13T08:51:49.551Z,2.70
2023-01-13T08:54:16.857Z,2.87
2023-01-13T08:56:44.511Z,3.07
2023-01-13T08:59:16.275Z,2.83
2023-01-13T09:01:43.203Z,2.77
2023-01-13T09:04:22.108Z,3.40
2023-01-13T09:06:49.459Z,5.27
2023-01-13T09:09:16.292Z,3.00
2023-01-13T09:12:04.054Z,2.87
2023-01-13T09:14:32.721Z,2.50
2023-01-13T09:17:00.779Z,2.30
2023-01-13T09:19:29.028Z,2.60
2023-01-13T09:21:59.068Z,3.10
2023-01-13T09:24:26.226Z,2.60
2023-01-13T09:26:53.981Z,3.43
2023-01-13T09:29:20.715Z,2.90
2023-01-13T09:31:47.387Z,2.87
2023-01-13T09:34:35.363Z,3.20
2023-01-13T09:37:02.277Z,2.93
2023-01-13T09:39:28.836Z,3.27
2023-01-13T09:42:15.856Z,2.63
2023-01-13T09:45:05.394Z,3.00
2023-01-13T09:47:51.909Z,3.57
2023-01-13T09:50:22.172Z,3.00
2023-01-13T09:52:48.681Z,3.50
2023-01-13T09:55:18.497Z,6.90
2023-01-13T09:57:45.118Z,3.07
2023-01-13T10:00:14.301Z,2.87
2023-01-13T10:02:59.628Z,3.27
2023-01-13T10:05:32.418Z,3.10
2023-01-13T10:08:05.442Z,3.37
2023-01-13T10:10:43.323Z,3.40
2023-01-13T10:13:22.069Z,3.03
2023-01-13T10:15:56.100Z,3.27
2023-01-13T10:18:33.429Z,4.23
2023-01-13T10:21:15.007Z,3.03
2023-01-13T10:23:41.506Z,3.87
2023-01-13T10:26:25.297Z,3.43
2023-01-13T10:28:53.481Z,3.27
2023-01-13T10:31:20.970Z,4.47
2023-01-13T10:33:47.837Z,3.83
2023-01-13T10:36:21.415Z,4.23
2023-01-13T10:38:49.827Z,3.80
2023-01-13T10:41:16.300Z,4.17
2023-01-13T10:43:58.356Z,3.97
2023-01-13T10:46:24.937Z,3.30
2023-01-13T10:48:52.946Z,3.67
2023-01-13T10:51:31.090Z,4.30
2023-01-13T10:54:02.084Z,3.10
2023-01-13T10:56:33.728Z,3.30
2023-01-13T10:59:27.040Z,3.90
2023-01-13T11:01:59.781Z,3.00
2023-01-13T11:04:26.950Z,4.30
2023-01-13T11:06:53.883Z,3.53
2023-01-13T11:09:22.501Z,3.37
2023-01-13T11:11:55.683Z,4.23
2023-01-13T11:14:44.091Z,3.77
2023-01-13T11:17:27.794Z,3.67
2023-01-13T11:20:00.448Z,3.63
2023-01-13T11:22:34.379Z,3.83
2023-01-13T11:25:03.479Z,3.50
2023-01-13T11:27:43.864Z,3.40
2023-01-13T11:30:26.792Z,3.60
2023-01-13T11:33:11.809Z,3.67
2023-01-13T11:35:42.522Z,3.57
2023-01-13T11:38:42.666Z,3.80
2023-01-13T11:41:19.062Z,3.40
2023-01-13T11:44:00.451Z,3.40
2023-01-13T11:46:28.168Z,3.03
2023-01-13T11:48:56.621Z,3.03
2023-01-13T11:51:28.243Z,3.17
2023-01-13T11:53:57.849Z,2.60
2023-01-13T11:56:39.611Z,3.10
2023-01-13T11:59:34.027Z,3.30
2023-01-13T12:02:06.598Z,3.70
2023-01-13T12:04:36.033Z,3.17
2023-01-13T12:07:13.746Z,4.13
2023-01-13T12:09:53.678Z,3.57
2023-01-13T12:13:02.132Z,3.63
2023-01-13T12:15:52.171Z,3.20
2023-01-13T12:18:43.595Z,4.33
2023-01-13T12:21:22.569Z,4.00
2023-01-13T12:24:05.281Z,3.73
2023-01-13T12:26:36.033Z,3.80
2023-01-13T12:29:15.608Z,3.63
2023-01-13T12:31:43.822Z,4.27
2023-01-13T12:34:39.921Z,4.13
2023-01-13T12:37:43.044Z,3.73
2023-01-13T12:40:38.865Z,3.60
2023-01-13T12:43:38.795Z,3.50
2023-01-13T12:46:25.739Z,3.47
2023-01-13T12:48:57.271Z,3.97
2023-01-13T12:51:26.777Z,3.90
2023-01-13T12:53:54.815Z,3.23
2023-01-13T12:56:44.612Z,4.00
2023-01-13T12:59:17.582Z,4.00
2023-01-13T13:01:48.330Z,4.17
2023-01-13T13:04:21.904Z,3.77
2023-01-13T13:06:56.299Z,3.70
2023-01-13T13:09:29.210Z,6.33
2023-01-13T13:11:58.609Z,2.97
2023-01-13T13:14:37.636Z,3.73
2023-01-13T13:17:25.383Z,3.00
2023-01-13T13:19:52.458Z,2.87
2023-01-13T13:22:42.966Z,3.23
2023-01-13T13:25:22.964Z,2.77
2023-01-13T13:28:06.190Z,2.63
2023-01-13T13:30:37.818Z,2.20
2023-01-13T13:33:13.796Z,4.70
2023-01-13T13:36:13.921Z,3.70
2023-01-13T13:39:21.937Z,3.40
2023-01-13T13:42:09.761Z,4.50
2023-01-13T13:45:00.358Z,4.03
2023-01-13T13:47:38.426Z,3.30
2023-01-13T13:50:09.193Z,2.97
2023-01-13T13:52:40.039Z,2.87
2023-01-13T13:55:17.378Z,3.03
2023-01-13T13:57:50.457Z,3.43
2023-01-13T14:00:35.558Z,3.13
2023-01-13T14:03:04.199Z,3.40
2023-01-13T14:05:35.820Z,3.10
2023-01-13T14:08:17.516Z,3.73
2023-01-13T14:10:46.274Z,3.47
2023-01-13T14:13:33.284Z,3.77
2023-01-13T14:16:03.927Z,3.83
2023-01-13T14:18:44.726Z,3.07
2023-01-13T14:21:20.128Z,3.13
2023-01-13T14:24:15.827Z,3.03
2023-01-13T14:26:42.492Z,3.20
2023-01-13T14:29:13.878Z,3.50
2023-01-13T14:31:40.813Z,3.37
2023-01-13T14:34:31.873Z,3.50
2023-01-13T14:36:55.260Z,3.13
2023-01-13T14:39:26.297Z,3.50
2023-01-13T14:41:53.398Z,3.83
2023-01-13T14:44:31.656Z,3.47
2023-01-13T14:47:00.548Z,3.63
2023-01-13T14:49:52.663Z,2.70
2023-01-13T14:52:21.150Z,3.10
2023-01-13T14:54:53.340Z,3.00
2023-01-13T14:57:28.052Z,3.10
2023-01-13T15:00:16.374Z,3.47
2023-01-13T15:02:58.283Z,3.20
2023-01-13T15:05:27.637Z,3.53
2023-01-13T15:08:06.322Z,3.07
2023-01-13T15:10:38.754Z,4.00
2023-01-13T15:13:06.848Z,3.87
2023-01-13T15:15:40.767Z,7.53
2023-01-13T15:18:13.576Z,4.80
2023-01-13T15:20:41.317Z,3.73
2023-01-13T15:23:10.921Z,4.70
2023-01-13T15:25:39.861Z,3.83
2023-01-13T15:28:07.519Z,3.70
2023-01-13T15:30:34.425Z,3.53
2023-01-13T15:33:01.022Z,3.93
2023-01-13T15:35:29.149Z,3.43
2023-01-13T15:37:56.916Z,4.07
2023-01-13T15:40:33.508Z,4.00
2023-01-13T15:43:18.341Z,4.30
2023-01-13T15:46:05.075Z,17.27
2023-01-13T15:48:32.915Z,4.17
2023-01-13T15:51:00.896Z,4.13
2023-01-13T15:53:28.617Z,3.60
2023-01-13T15:55:56.929Z,4.30
2023-01-13T15:58:28.477Z,4.57
2023-01-13T16:00:55.630Z,4.17
2023-01-13T16:03:22.373Z,3.93
2023-01-13T16:05:49.140Z,3.80
2023-01-13T16:08:20.262Z,4.20
2023-01-13T16:10:47.273Z,3.73
2023-01-13T16:13:14.529Z,3.73
2023-01-13T16:16:00.419Z,3.80
2023-01-13T16:18:27.355Z,4.43
2023-01-13T16:20:56.575Z,6.90
2023-01-13T16:23:23.177Z,3.80
2023-01-13T16:25:50.465Z,3.97
2023-01-13T16:28:24.866Z,3.87
2023-01-13T16:30:51.589Z,3.80
2023-01-13T16:33:18.193Z,3.90
2023-01-13T16:36:09.349Z,3.83
2023-01-13T16:38:31.396Z,4.37
2023-01-13T16:40:58.438Z,4.27
2023-01-13T16:43:25.084Z,3.70
2023-01-13T16:45:51.589Z,3.83
2023-01-13T16:48:20.010Z,3.23
2023-01-13T16:50:47.557Z,3.23
2023-01-13T16:53:14.202Z,3.60
2023-01-13T16:55:41.684Z,4.03
2023-01-13T16:58:20.219Z,4.27
2023-01-13T17:00:47.871Z,3.50
2023-01-13T17:03:15.503Z,3.60
2023-01-13T17:05:44.753Z,3.37
2023-01-13T17:08:17.804Z,3.33
2023-01-13T17:10:45.647Z,3.50
2023-01-13T17:13:16.253Z,3.87
2023-01-13T17:15:43.680Z,3.87
2023-01-13T17:18:11.947Z,4.17
2023-01-13T17:20:38.445Z,3.33
2023-01-13T17:23:05.134Z,3.23
2023-01-13T17:25:31.783Z,3.90
2023-01-13T17:27:58.397Z,3.83
2023-01-13T17:30:24.952Z,4.97
2023-01-13T17:32:51.453Z,3.60
2023-01-13T17:35:22.885Z,3.30
2023-01-13T17:37:52.900Z,3.87
2023-01-13T17:40:20.922Z,3.77
2023-01-13T17:42:47.572Z,3.50
2023-01-13T17:45:14.165Z,3.80
2023-01-13T17:47:40.640Z,3.63
2023-01-13T17:50:07.504Z,3.87
2023-01-13T17:52:35.195Z,4.13
2023-01-13T17:55:01.968Z,4.60
2023-01-13T17:57:28.409Z,3.50
2023-01-13T17:59:55.288Z,4.33
2023-01-13T18:02:22.094Z,3.60
2023-01-13T18:04:48.827Z,3.60
2023-01-13T18:07:15.382Z,3.40
2023-01-13T18:09:42.250Z,6.40
2023-01-13T18:12:08.835Z,3.33
2023-01-13T18:14:35.905Z,3.70
2023-01-13T18:17:02.826Z,3.57
2023-01-13T18:19:48.201Z,4.30
2023-01-13T18:22:34.175Z,3.20
2023-01-13T18:25:21.864Z,7.57
2023-01-13T18:27:48.480Z,3.73
2023-01-13T18:30:15.298Z,3.63
2023-01-13T18:32:42.204Z,3.23
2023-01-13T18:35:11.899Z,4.50
2023-01-13T18:37:40.760Z,3.83
2023-01-13T18:40:09.487Z,4.63
2023-01-13T18:43:06.295Z,4.27
2023-01-13T18:45:33.022Z,4.67
2023-01-13T18:48:01.594Z,4.03
2023-01-13T18:50:29.100Z,4.50
2023-01-13T18:52:56.408Z,3.43
2023-01-13T18:55:23.432Z,3.90
2023-01-13T18:57:50.798Z,3.13
2023-01-13T19:00:19.716Z,4.17
2023-01-13T19:02:47.411Z,3.60
2023-01-13T19:05:14.660Z,3.53
2023-01-13T19:07:43.315Z,3.77
2023-01-13T19:10:10.666Z,3.60
2023-01-13T19:12:37.276Z,3.70
2023-01-13T19:15:04.676Z,2.77
2023-01-13T19:17:33.914Z,4.00
2023-01-13T19:20:00.907Z,3.30
2023-01-13T19:22:30.581Z,3.90
2023-01-13T19:24:57.861Z,3.40
2023-01-13T19:27:25.316Z,3.50
2023-01-13T19:29:53.617Z,3.73
2023-01-13T19:32:21.972Z,3.30
2023-01-13T19:34:50.793Z,3.13
2023-01-13T19:37:17.939Z,3.80
2023-01-13T19:39:45.070Z,3.67
2023-01-13T19:42:31.132Z,3.07
2023-01-13T19:45:16.305Z,3.50
2023-01-13T19:47:45.390Z,3.27
2023-01-13T19:50:12.714Z,3.80
2023-01-13T19:52:39.492Z,3.87
2023-01-13T19:55:06.527Z,3.70
2023-01-13T19:57:33.042Z,3.97
2023-01-13T19:59:59.653Z,4.00
2023-01-13T20:02:28.919Z,2.90
2023-01-13T20:04:56.598Z,3.83
2023-01-13T20:07:24.888Z,3.77
2023-01-13T20:09:56.406Z,3.27
2023-01-13T20:12:24.335Z,3.83
2023-01-13T20:14:51.358Z,4.17
2023-01-13T20:17:20.067Z,3.87
2023-01-13T20:19:46.870Z,3.60
2023-01-13T20:22:14.058Z,3.10
2023-01-13T20:24:40.687Z,4.03
2023-01-13T20:27:07.475Z,4.03
2023-01-13T20:29:34.260Z,3.87
2023-01-13T20:32:01.232Z,4.43
2023-01-13T20:34:28.056Z,3.70
2023-01-13T20:36:54.670Z,6.37
2023-01-13T20:39:25.561Z,3.80
2023-01-13T20:42:10.784Z,4.13
2023-01-13T20:44:37.344Z,4.10
2023-01-13T20:47:04.210Z,3.80
2023-01-13T20:49:30.934Z,3.70
2023-01-13T20:51:57.896Z,3.17
2023-01-13T20:54:24.751Z,3.17
2023-01-13T20:56:51.815Z,3.70
2023-01-13T20:59:18.433Z,3.80
2023-01-13T21:01:45.127Z,4.03
2023-01-13T21:04:11.966Z,3.50
2023-01-13T21:06:38.758Z,3.47
2023-01-13T21:09:05.457Z,3.50
2023-01-13T21:11:50.418Z,3.83
2023-01-13T21:14:41.366Z,3.17
2023-01-13T21:17:32.848Z,3.27
2023-01-13T21:20:00.009Z,3.50
2023-01-13T21:22:26.882Z,3.73
2023-01-13T21:24:53.765Z,3.60
2023-01-13T21:27:21.187Z,3.73
2023-01-13T21:29:47.772Z,3.60
2023-01-13T21:32:14.363Z,4.17
2023-01-13T21:34:41.234Z,3.37
2023-01-13T21:37:07.747Z,3.53
2023-01-13T21:39:34.409Z,3.80
2023-01-13T21:42:19.722Z,4.60
2023-01-13T21:45:04.803Z,4.50
2023-01-13T21:47:49.519Z,3.67
2023-01-13T21:50:22.582Z,3.77
2023-01-13T21:52:49.990Z,4.13
2023-01-13T21:55:17.229Z,3.73
2023-01-13T21:57:48.097Z,3.73
2023-01-13T22:00:15.790Z,4.33
2023-01-13T22:02:43.418Z,4.13
2023-01-13T22:05:12.301Z,4.20
2023-01-13T22:07:40.126Z,3.80
2023-01-13T22:10:09.775Z,3.83
2023-01-13T22:12:36.495Z,4.50
2023-01-13T22:15:04.817Z,3.47
2023-01-13T22:17:31.855Z,4.33
2023-01-13T22:20:00.134Z,3.87
2023-01-13T22:22:27.646Z,3.93
2023-01-13T22:24:54.516Z,4.40
2023-01-13T22:27:24.130Z,4.00
2023-01-13T22:29:52.223Z,4.83
2023-01-13T22:32:20.585Z,4.83
2023-01-13T22:34:48.048Z,3.50
2023-01-13T22:37:14.908Z,4.83
2023-01-13T22:39:41.604Z,4.20
2023-01-13T22:42:10.168Z,3.90
2023-01-13T22:44:36.693Z,5.60
2023-01-13T22:47:03.584Z,4.17
2023-01-13T22:49:30.336Z,4.13
2023-01-13T22:51:56.932Z,4.33
2023-01-13T22:54:23.684Z,5.30
2023-01-13T22:56:50.308Z,3.93
2023-01-13T22:59:17.013Z,4.07
2023-01-13T23:01:43.799Z,4.63
2023-01-13T23:04:13.450Z,4.60
2023-01-13T23:06:40.337Z,4.70
2023-01-13T23:09:08.849Z,4.90
2023-01-13T23:11:35.934Z,4.17
2023-01-13T23:14:05.587Z,4.50
2023-01-13T23:16:37.431Z,5.27
2023-01-13T23:19:05.427Z,4.87
2023-01-13T23:21:36.026Z,4.73
2023-01-13T23:24:04.569Z,4.20
2023-01-13T23:26:31.804Z,4.27
2023-01-13T23:29:03.557Z,4.57
2023-01-13T23:31:30.406Z,4.67
2023-01-13T23:33:57.319Z,4.87
2023-01-13T23:36:27.362Z,4.23
2023-01-13T23:38:54.653Z,5.00
2023-01-13T23:41:24.324Z,5.80
2023-01-13T23:43:52.762Z,5.40
2023-01-13T23:46:20.399Z,5.67
2023-01-13T23:48:47.530Z,5.77
2023-01-13T23:51:14.490Z,4.77
2023-01-13T23:53:44.480Z,4.90
2023-01-13T23:56:16.639Z,5.23
2023-01-13T23:58:43.621Z,5.40
